Latest Weather Observations for Maria Island

IDT60801

Issued at 4:01 pm EST Saturday 29 August 2015 (issued every 30 minutes, with the page automatically refreshed every 10 minutes)

About weather observations | Map of weather stations | Latest weather observations for TAS | Other Formats
Station Details ID: 092124 Name: MARIA ISLAND (POINT LESUEUR) Lat: -42.66 Lon: 148.02 Height: 28.0 m
Data from the previous 72 hours. | See also: Recent months at Maria Island
Date/Time
EST
Temp
°C
App
Temp
°C
Dew
Point
Rel
Hum
%
Delta-T
°C
Wind Press
QNH
hPa
Press
MSL
hPa
Rain
since 9 am
mm
Dir
 
Spd
km/h
Gust
km/h
Spd
kts
Gust
kts
29/04:00pm 8.2 -3.0 6.0 86 1.0 SSW 54 63 29 34 1020.4 1020.4 0.2
29/03:30pm 8.2 -2.9 6.5 89 0.8 SSW 54 65 29 35 1020.3 1020.3 0.0
29/03:00pm 8.4 -2.6 6.7 89 0.8 SSW 54 61 29 33 1020.3 1020.3 0.0
29/02:30pm 8.5 -1.4 6.6 88 0.9 SSW 48 57 26 31 1020.2 1020.2 0.0
29/02:00pm 9.1 -1.2 6.4 83 1.2 SSW 50 61 27 33 1019.8 1019.8 0.0
29/01:30pm 9.1 -0.8 6.5 84 1.2 SSW 48 57 26 31 1019.6 1019.6 0.0
29/01:02pm 8.9 -1.1 6.2 83 1.2 S 48 67 26 36 1019.6 1019.6 0.0
29/01:00pm 9.3 -0.2 6.7 84 1.2 S 46 59 25 32 1019.8 1019.8 0.0
29/12:43pm 9.2 -1.5 6.5 83 1.3 S 52 72 28 39 1019.7 1019.7 0.0
29/12:30pm 9.4 -0.9 6.7 83 1.3 S 50 63 27 34 1019.6 1019.6 0.0
29/12:16pm 9.2 -1.1 6.6 84 1.2 S 50 69 27 37 1019.7 1019.7 0.0
29/12:00pm 9.5 -1.6 6.2 80 1.5 S 54 63 29 34 1019.7 1019.7 0.0
29/11:30am 9.5 -2.0 6.2 80 1.5 SSW 56 67 30 36 1019.5 1019.5 0.0
29/11:00am 9.5 -1.5 6.6 82 1.3 SSW 54 61 29 33 1019.6 1019.6 0.0
29/10:31am 9.1 -2.3 6.7 85 1.1 S 56 82 30 44 1019.3 1019.3 0.0
29/10:30am 9.2 -1.8 7.0 86 1.0 S 54 69 29 37 1019.5 1019.5 0.0
29/10:12am 9.3 -1.6 7.3 87 0.9 SSW 54 74 29 40 1019.4 1019.4 0.0
29/10:00am 8.9 -2.3 7.4 90 0.7 SSW 56 69 30 37 1019.3 1019.3 0.0
29/09:30am 9.0 -2.1 7.8 92 0.6 SSW 56 67 30 36 1019.1 1019.1 0.0
29/09:00am 9.4 -2.1 8.6 95 0.4 S 59 72 32 39 1018.6 1018.6 17.2
29/08:34am 9.4 -3.6 8.8 96 0.3 S 67 89 36 48 1017.8 1017.8 17.2
29/08:30am 9.2 -3.4 8.7 97 0.2 S 65 78 35 42 1018.0 1018.0 17.2
29/08:00am 8.9 -4.2 8.5 97 0.2 S 67 85 36 46 1017.7 1017.7 16.8
29/07:34am 9.6 -2.6 9.1 97 0.2 S 63 85 34 46 1017.1 1017.1 16.4
29/07:30am 9.5 -3.1 9.0 97 0.2 S 65 78 35 42 1017.1 1017.1 16.2
29/07:00am 9.3 -3.3 8.7 96 0.3 S 65 80 35 43 1016.7 1016.7 15.6
29/06:32am 8.8 -2.4 8.2 96 0.3 S 57 83 31 45 1016.4 1016.4 14.6
29/06:30am 8.8 -1.9 8.2 96 0.3 S 54 69 29 37 1016.5 1016.5 14.6
29/06:00am 8.9 -1.2 7.5 91 0.7 SSW 50 63 27 34 1016.5 1016.5 12.4
29/05:30am 8.0 -1.9 6.8 92 0.6 SSW 48 57 26 31 1016.4 1016.4 12.0
29/05:00am 7.5 -1.7 6.3 92 0.5 SSW 44 52 24 28 1016.4 1016.4 11.4
29/04:30am 7.3 -3.1 5.9 91 0.6 SSW 50 57 27 31 1016.4 1016.4 10.8
29/04:00am 7.2 -2.1 5.8 91 0.6 SSW 44 54 24 29 1016.5 1016.5 10.4
29/03:30am 6.8 -2.7 5.1 89 0.7 SSW 44 52 24 28 1016.5 1016.5 10.2
29/03:00am 7.1 -1.3 5.4 89 0.8 SSW 39 52 21 28 1016.6 1016.6 9.6
29/02:30am 7.3 -1.8 5.8 90 0.7 SSW 43 52 23 28 1016.7 1016.7 9.0
29/02:05am 7.3 -2.8 5.6 89 0.8 SSW 48 69 26 37 1016.6 1016.6 8.6
29/02:00am 6.8 -3.4 5.1 89 0.7 SSW 48 61 26 33 1016.4 1016.4 8.4
29/01:30am 7.2 -3.0 5.0 86 1.0 SW 48 59 26 32 1016.2 1016.2 8.2
29/01:00am 7.0 -2.8 5.2 88 0.8 SW 46 59 25 32 1016.2 1016.2 8.2
29/12:30am 7.0 -4.5 4.5 84 1.1 SW 54 65 29 35 1015.7 1015.7 6.6
29/12:07am 6.4 -2.7 4.2 86 0.9 SW 41 61 22 33 1015.7 1015.7 6.6
29/12:00am 5.7 -4.0 3.9 88 0.8 WSW 44 57 24 31 1016.3 1016.3 6.6
 
Date/Time
EST
Temp
°C
App
Temp
°C
Dew
Point
Rel
Hum
%
Delta-T
°C
Wind Press
QNH
hPa
Press
MSL
hPa
Rain
since 9 am
mm
Dir
 
Spd
km/h
Gust
km/h
Spd
kts
Gust
kts
28/11:41pm 5.3 -3.5 3.6 89 0.7 WSW 39 65 21 35 1016.3 1016.3 6.2
28/11:30pm 5.0 -2.7 3.3 89 0.7 WSW 33 43 18 23 1016.9 1016.9 5.8
28/11:05pm 5.3 -4.0 3.2 86 0.9 WSW 41 61 22 33 1016.6 1016.6 4.8
28/11:00pm 5.0 -3.9 3.0 87 0.8 WSW 39 54 21 29 1017.1 1017.1 4.8
28/10:30pm 4.3 -6.0 2.5 88 0.7 W 46 61 25 33 1017.2 1017.2 4.6
28/10:00pm 4.0 -5.8 2.2 88 0.7 W 43 56 23 30 1018.0 1018.0 4.4
28/09:35pm 3.6 -4.8 1.8 88 0.7 WNW 35 54 19 29 1018.4 1018.4 4.2
28/09:30pm 3.9 -4.0 2.1 88 0.7 WNW 33 48 18 26 1018.8 1018.8 4.2
28/09:00pm 3.5 -4.5 1.9 89 0.6 W 33 44 18 24 1019.5 1019.5 4.0
28/08:30pm 3.9 -4.4 2.1 88 0.7 W 35 48 19 26 1020.1 1020.1 3.8
28/08:00pm 4.0 -3.9 2.0 87 0.8 WSW 33 46 18 25 1020.8 1020.8 3.6
28/07:37pm 4.3 -4.7 2.2 86 0.8 WSW 39 57 21 31 1021.2 1021.2 3.2
28/07:30pm 4.7 -6.0 2.4 85 0.9 SW 48 63 26 34 1021.4 1021.4 2.8
28/07:11pm 4.3 -2.7 1.8 84 1.0 WSW 28 46 15 25 1021.6 1021.6 2.6
28/07:00pm 3.9 -2.3 1.9 87 0.8 W 24 43 13 23 1022.0 1022.0 2.6
28/06:57pm 3.8 -3.2 1.7 86 0.8 WSW 28 43 15 23 1021.9 1021.9 2.6
28/06:30pm 4.4 -5.0 2.1 85 0.9 SW 41 54 22 29 1022.2 1022.2 2.6
28/06:00pm 4.9 -5.8 2.3 83 1.0 SW 48 59 26 32 1021.9 1021.9 2.4
28/05:30pm 5.5 -6.1 2.0 78 1.4 SW 52 78 28 42 1021.9 1021.9 2.2
28/05:04pm 6.5 -4.9 2.8 77 1.5 SW 52 82 28 44 1021.5 1021.5 2.2
28/05:00pm 6.5 -3.8 2.6 76 1.6 SW 46 59 25 32 1021.7 1021.7 2.2
28/04:31pm 5.4 -5.3 2.4 81 1.2 SSW 48 72 26 39 1022.3 1022.3 1.6
28/04:30pm 5.6 -4.7 2.6 81 1.2 SSW 46 56 25 30 1022.4 1022.5 1.4
28/04:18pm 6.2 -4.3 1.7 73 1.8 SSW 46 65 25 35 1022.3 1022.3 1.2
28/04:00pm 6.0 -4.8 1.9 75 1.6 SW 48 61 26 33 1022.5 1022.6 1.2
28/03:56pm 6.1 -5.3 2.7 79 1.4 SW 52 65 28 35 1022.6 1022.7 1.2
28/03:30pm 6.9 -4.1 3.2 77 1.6 SSW 50 76 27 41 1022.3 1022.3 1.0
28/03:00pm 6.3 -3.7 4.5 88 0.8 SSW 46 63 25 34 1022.6 1022.7 1.0
28/02:56pm 5.4 -5.5 3.7 89 0.7 SSW 50 65 27 35 1022.9 1023.0 1.0
28/02:41pm 5.2 -7.0 2.4 82 1.1 SSW 56 82 30 44 1022.9 1023.0 0.4
28/02:36pm 7.6 -2.2 2.5 70 2.1 SSW 43 82 23 44 1022.2 1022.2 0.2
28/02:35pm 7.8 -1.6 2.5 69 2.2 SSW 41 74 22 40 1022.5 1022.6 0.2
28/02:30pm 7.4 -1.3 2.3 70 2.1 SSW 37 44 20 24 1022.9 1023.0 0.2
28/02:07pm 5.6 -6.8 1.3 74 1.7 SSW 56 82 30 44 1023.3 1023.4 0.2
28/02:00pm 5.9 -7.4 1.6 74 1.7 SSW 61 82 33 44 1022.9 1023.0 0.2
28/01:58pm 6.8 -5.7 1.9 71 2.0 S 57 76 31 41 1023.0 1023.1 0.2
28/01:30pm 8.3 -2.1 2.3 66 2.5 SSW 46 57 25 31 1023.2 1023.3 0.2
28/01:00pm 8.7 -0.4 1.8 62 2.8 SSW 39 54 21 29 1023.5 1023.6 0.2
28/12:30pm 6.6 -4.7 1.5 70 2.1 SSW 50 67 27 36 1024.0 1024.1 0.2
28/12:18pm 8.3 0.6 2.5 67 2.4 SSW 32 61 17 33 1023.8 1023.9 0.2
28/12:00pm 8.1 1.0 3.4 72 2.0 SW 30 35 16 19 1024.4 1024.5 0.2
28/11:53am 7.5 0.8 3.4 75 1.7 SW 28 33 15 18 1024.7 1024.8 0.2
28/11:30am 8.0 -1.0 2.7 69 2.2 S 39 52 21 28 1024.8 1024.9 0.2
28/11:19am 6.8 -2.7 1.9 71 2.0 SSW 41 54 22 29 1024.8 1024.9 0.2
28/11:00am 6.7 -2.5 3.7 81 1.3 SW 41 57 22 31 1024.8 1024.9 0.2
28/10:55am 7.1 -0.3 4.2 82 1.3 SSW 32 56 17 30 1025.1 1025.2 0.2
28/10:34am 5.7 -4.2 2.9 82 1.2 S 44 63 24 34 1025.4 1025.5 0.2
28/10:30am 6.6 -3.1 2.9 77 1.5 SSW 43 63 23 34 1025.2 1025.3 0.0
28/10:00am 6.6 -2.7 2.9 77 1.5 SSW 41 59 22 32 1025.0 1025.1 0.0
28/09:30am 7.3 -2.7 2.4 71 2.0 SSW 44 54 24 29 1024.9 1025.0 0.0
28/09:00am 6.4 -2.9 2.7 77 1.5 SSW 41 50 22 27 1025.0 1025.1 0.6
28/08:30am 6.0 -2.6 2.6 79 1.4 SSW 37 46 20 25 1024.9 1025.0 0.6
28/08:15am 5.8 -4.0 3.1 83 1.1 SSW 44 65 24 35 1024.9 1025.0 0.6
28/08:00am 6.8 -4.2 3.1 77 1.5 SSW 50 57 27 31 1024.5 1024.6 0.6
28/07:30am 6.2 -4.5 2.8 79 1.4 S 48 65 26 35 1024.2 1024.3 0.6
28/07:09am 7.0 -3.7 2.7 74 1.8 SSW 48 67 26 36 1024.2 1024.3 0.6
28/07:00am 7.3 -3.8 2.2 70 2.1 S 50 59 27 32 1023.9 1024.0 0.6
28/06:30am 7.1 -3.0 1.4 67 2.3 S 44 52 24 28 1023.4 1023.5 0.6
28/06:00am 7.4 -3.8 2.1 69 2.2 SSW 50 57 27 31 1023.1 1023.2 0.6
28/05:30am 7.4 -2.9 2.7 72 2.0 SSW 46 57 25 31 1023.0 1023.1 0.6
28/05:00am 7.3 -1.8 3.9 79 1.5 SSW 41 46 22 25 1022.9 1023.0 0.6
28/04:30am 7.3 -2.1 4.4 82 1.3 SSW 43 56 23 30 1022.8 1022.9 0.6
28/04:17am 7.4 -1.1 5.0 85 1.1 SSW 39 59 21 32 1022.5 1022.6 0.6
28/04:00am 7.4 -1.0 5.4 87 0.9 SSW 39 46 21 25 1022.6 1022.7 0.6
28/03:30am 7.5 -1.8 5.8 89 0.8 SSW 44 52 24 28 1022.2 1022.2 0.4
28/03:00am 7.8 -1.3 6.7 93 0.5 SSW 44 56 24 30 1022.1 1022.1 0.2
28/02:30am 8.4 -0.7 7.0 91 0.7 SSW 44 54 24 29 1021.9 1021.9 0.0
28/02:26am 8.2 -0.3 6.8 91 0.6 SSW 41 50 22 27 1021.9 1021.9 0.0
28/02:10am 8.1 0.7 6.7 91 0.6 SSW 35 48 19 26 1021.9 1021.9 0.0
28/02:00am 8.5 0.4 6.8 89 0.8 SSW 39 46 21 25 1021.9 1021.9 0.0
28/01:30am 8.8 0.4 5.5 80 1.5 SW 39 48 21 26 1021.9 1021.9 0.0
28/01:00am 9.1 2.4 5.5 78 1.6 SW 30 37 16 20 1021.7 1021.7 0.0
28/12:30am 9.1 2.8 5.5 78 1.6 SSW 28 32 15 17 1021.9 1021.9 0.0
28/12:00am 9.0 3.2 6.1 82 1.3 SSW 26 30 14 16 1022.0 1022.0 0.0
 
Date/Time
EST
Temp
°C
App
Temp
°C
Dew
Point
Rel
Hum
%
Delta-T
°C
Wind Press
QNH
hPa
Press
MSL
hPa
Rain
since 9 am
mm
Dir
 
Spd
km/h
Gust
km/h
Spd
kts
Gust
kts
27/11:30pm 9.3 3.9 6.2 81 1.4 SSW 24 28 13 15 1022.1 1022.1 0.0
27/11:00pm 9.5 4.4 6.0 79 1.6 SSW 22 28 12 15 1022.3 1022.3 0.0
27/10:30pm 9.5 4.8 6.0 79 1.6 SSW 20 26 11 14 1022.4 1022.5 0.0
27/10:00pm 9.6 4.1 5.8 77 1.7 SSW 24 28 13 15 1022.4 1022.5 0.0
27/09:30pm 10.0 4.5 5.8 75 1.9 SSW 24 30 13 16 1022.5 1022.6 0.0
27/09:00pm 10.1 4.0 6.4 78 1.7 SSW 28 32 15 17 1022.4 1022.5 0.0
27/08:30pm 10.2 4.4 6.2 76 1.9 SSW 26 30 14 16 1022.3 1022.3 0.0
27/08:00pm 10.1 4.6 6.1 76 1.8 SSW 24 26 13 14 1022.3 1022.3 0.0
27/07:30pm 10.2 4.8 6.4 77 1.8 SSW 24 28 13 15 1022.2 1022.2 0.0
27/07:00pm 10.3 5.2 5.9 74 2.0 S 22 26 12 14 1021.9 1021.9 0.0
27/06:30pm 10.4 7.3 7.3 81 1.5 S 13 17 7 9 1021.8 1021.8 0.0
27/06:00pm 10.7 7.7 7.8 82 1.4 S 13 19 7 10 1021.4 1021.4 0.0
27/05:30pm 10.6 6.5 8.0 84 1.3 SSE 19 20 10 11 1021.2 1021.2 0.0
27/05:00pm 10.5 6.8 7.9 84 1.3 SSE 17 20 9 11 1021.0 1021.0 0.0
27/04:30pm 10.7 7.2 7.4 80 1.6 SSE 15 20 8 11 1021.0 1021.0 0.0
27/04:00pm 11.2 8.2 7.7 79 1.7 SSE 13 15 7 8 1020.9 1020.9 0.0
27/03:30pm 11.8 9.8 7.1 73 2.3 S 7 9 4 5 1020.9 1020.9 0.0
27/03:00pm 11.5 8.4 7.4 76 2.0 SSW 13 15 7 8 1021.0 1021.0 0.0
27/02:30pm 11.9 8.3 6.8 71 2.4 S 15 17 8 9 1020.9 1020.9 0.0
27/02:00pm 11.6 8.3 8.1 79 1.7 S 15 17 8 9 1021.1 1021.1 0.0
27/01:30pm 11.8 8.3 8.6 81 1.6 SSW 17 19 9 10 1021.3 1021.3 0.0
27/01:00pm 11.2 7.9 7.9 80 1.6 SSW 15 19 8 10 1021.7 1021.7 0.0
27/12:30pm 11.0 7.1 7.1 77 1.9 S 17 19 9 10 1022.0 1022.0 0.0
27/12:00pm 10.9 6.4 6.8 76 1.9 SSW 20 22 11 12 1022.4 1022.5 0.0
27/11:30am 10.7 6.4 7.2 79 1.7 SSW 19 20 10 11 1022.7 1022.8 0.0
27/11:00am 10.2 6.3 7.1 81 1.5 SSW 17 19 9 10 1022.9 1023.0 0.0
27/10:30am 10.3 7.2 7.4 82 1.4 SSW 13 15 7 8 1023.1 1023.2 0.0
27/10:00am 10.0 7.3 7.3 83 1.3 SSW 11 13 6 7 1023.4 1023.5 0.0
27/09:30am 9.7 6.9 7.0 83 1.3 SSW 11 13 6 7 1023.6 1023.7 0.0
27/09:00am 9.6 5.7 7.2 85 1.1 SSW 17 19 9 10 1023.8 1023.9 0.0
27/08:30am 9.5 6.4 7.4 87 1.0 SSW 13 15 7 8 1024.0 1024.1 0.0
27/08:00am 9.1 7.1 7.2 88 0.9 S 7 9 4 5 1023.9 1024.0 0.0
27/07:30am 8.8 6.8 7.3 90 0.7 SSW 7 9 4 5 1023.8 1023.9 0.0
27/07:00am 8.7 6.9 7.2 90 0.7 WSW 6 7 3 4 1023.5 1023.6 0.0
27/06:30am 8.5 7.0 7.0 90 0.7 W 4 4 2 2 1023.3 1023.4 0.0
27/06:00am 8.8 7.4 7.1 89 0.8 SW 4 6 2 3 1023.3 1023.4 0.0
27/05:30am 8.9 6.9 7.2 89 0.8 SW 7 9 4 5 1023.3 1023.4 0.0
27/05:00am 9.1 8.5 7.2 88 0.9 CALM 0 4 0 2 1023.5 1023.6 0.0
27/04:30am 9.4 7.7 7.5 88 0.9 S 6 7 3 4 1023.6 1023.7 0.0
27/04:00am 9.3 8.0 7.6 89 0.8 SSW 4 6 2 3 1023.7 1023.8 0.0
27/03:30am 8.8 7.4 7.3 90 0.7 WSW 4 6 2 3 1024.0 1024.1 0.0
27/03:00am 8.8 6.8 7.3 90 0.7 W 7 9 4 5 1024.5 1024.6 0.0
27/02:30am 8.4 6.5 6.9 90 0.7 WNW 6 7 3 4 1024.9 1025.0 0.0
27/02:00am 8.3 6.2 6.8 90 0.7 WNW 7 7 4 4 1025.2 1025.3 0.0
27/01:30am 8.6 6.6 6.9 89 0.8 NW 7 9 4 5 1025.6 1025.7 0.0
27/01:00am 8.9 7.1 7.0 88 0.9 NNW 6 6 3 3 1025.9 1026.0 0.0
27/12:30am 8.8 6.8 7.1 89 0.8 NW 7 9 4 5 1026.1 1026.2 0.0
27/12:00am 8.7 6.6 6.7 87 0.9 NW 7 9 4 5 1026.2 1026.3 0.0
 
Date/Time
EST
Temp
°C
App
Temp
°C
Dew
Point
Rel
Hum
%
Delta-T
°C
Wind Press
QNH
hPa
Press
MSL
hPa
Rain
since 9 am
mm
Dir
 
Spd
km/h
Gust
km/h
Spd
kts
Gust
kts
26/11:30pm 9.6 7.3 7.4 86 1.0 N 9 11 5 6 1026.4 1026.5 0.0
26/11:00pm 9.9 7.2 7.3 84 1.2 NNW 11 15 6 8 1026.6 1026.7 0.0
26/10:30pm 10.8 7.3 7.3 79 1.7 N 15 17 8 9 1026.8 1026.9 0.0
26/10:00pm 10.9 7.0 7.2 78 1.8 NNE 17 20 9 11 1027.0 1027.1 0.0
26/09:30pm 10.7 7.0 7.9 83 1.4 N 17 22 9 12 1027.1 1027.2 0.0
26/09:00pm 9.4 6.7 7.3 87 1.0 NNW 11 13 6 7 1027.4 1027.5 0.0
26/08:30pm 9.6 7.2 7.2 85 1.1 NW 9 11 5 6 1027.4 1027.5 0.0
26/08:00pm 9.9 7.6 7.5 85 1.1 N 9 11 5 6 1027.4 1027.5 0.0
26/07:30pm 10.4 6.8 6.9 79 1.7 N 15 17 8 9 1027.4 1027.5 0.0
26/07:00pm 10.5 6.9 6.6 77 1.8 NNE 15 19 8 10 1027.3 1027.4 0.0
26/06:30pm 10.1 7.1 5.9 75 1.9 NNE 11 15 6 8 1027.2 1027.3 0.0
26/06:00pm 10.4 7.7 5.6 72 2.2 NNE 9 11 5 6 1027.3 1027.4 0.0
26/05:30pm 10.9 7.8 5.4 69 2.5 N 11 17 6 9 1027.2 1027.3 0.0
26/05:00pm 11.4 7.5 5.3 66 2.8 NNE 15 17 8 9 1027.2 1027.3 0.0
26/04:30pm 12.0 7.2 4.7 61 3.3 NNE 19 22 10 12 1027.2 1027.3 0.0

Other Formats:

Comma delimited format used in spreadsheet applications
http://www.bom.gov.au/fwo/IDT60801/IDT60801.95988.axf

JavaScript Object Notation format (JSON) in row-major order
http://www.bom.gov.au/fwo/IDT60801/IDT60801.95988.json